sensor_id;sensor_type;location;lat;lon;timestamp;pressure;altitude;pressure_sealevel;temperature;humidity
64616;BME280;51027;42.162;24.754;2023-03-22T00:00:07;99392.81;;;10.67;100.00
64616;BME280;51027;42.162;24.754;2023-03-22T00:02:37;99381.50;;;10.65;100.00
64616;BME280;51027;42.162;24.754;2023-03-22T00:05:02;99370.91;;;10.67;100.00
64616;BME280;51027;42.162;24.754;2023-03-22T00:07:28;99373.78;;;10.61;100.00
64616;BME280;51027;42.162;24.754;2023-03-22T00:09:53;99388.84;;;10.78;100.00
64616;BME280;51027;42.162;24.754;2023-03-22T00:12:19;99388.59;;;10.84;100.00
64616;BME280;51027;42.162;24.754;2023-03-22T00:14:44;99395.22;;;10.72;100.00
64616;BME280;51027;42.162;24.754;2023-03-22T00:17:10;99398.59;;;10.76;100.00
64616;BME280;51027;42.162;24.754;2023-03-22T00:19:35;99391.19;;;10.65;100.00
64616;BME280;51027;42.162;24.754;2023-03-22T00:22:01;99396.44;;;10.65;100.00
64616;BME280;51027;42.162;24.754;2023-03-22T00:24:27;99398.34;;;10.61;100.00
64616;BME280;51027;42.162;24.754;2023-03-22T00:26:53;99391.72;;;10.53;100.00
64616;BME280;51027;42.162;24.754;2023-03-22T00:29:18;99386.09;;;10.60;100.00
64616;BME280;51027;42.162;24.754;2023-03-22T00:31:46;99394.94;;;10.59;100.00
64616;BME280;51027;42.162;24.754;2023-03-22T00:34:13;99390.59;;;10.58;100.00
64616;BME280;51027;42.162;24.754;2023-03-22T00:36:38;99386.88;;;10.62;100.00
64616;BME280;51027;42.162;24.754;2023-03-22T00:39:03;99393.91;;;10.43;100.00
64616;BME280;51027;42.162;24.754;2023-03-22T00:41:29;99383.31;;;10.45;100.00
64616;BME280;51027;42.162;24.754;2023-03-22T00:43:54;99377.81;;;10.49;100.00
64616;BME280;51027;42.162;24.754;2023-03-22T00:46:20;99381.91;;;10.56;100.00
64616;BME280;51027;42.162;24.754;2023-03-22T00:48:46;99385.38;;;10.77;100.00
64616;BME280;51027;42.162;24.754;2023-03-22T00:51:13;99386.69;;;10.67;100.00
64616;BME280;51027;42.162;24.754;2023-03-22T00:53:39;99385.44;;;10.76;100.00
64616;BME280;51027;42.162;24.754;2023-03-22T00:56:05;99384.53;;;10.95;100.00
64616;BME280;51027;42.162;24.754;2023-03-22T00:58:31;99350.75;;;10.66;100.00
64616;BME280;51027;42.162;24.754;2023-03-22T01:00:57;99366.69;;;10.82;100.00
64616;BME280;51027;42.162;24.754;2023-03-22T01:03:22;99389.25;;;10.68;100.00
64616;BME280;51027;42.162;24.754;2023-03-22T01:05:51;99386.84;;;10.83;100.00
64616;BME280;51027;42.162;24.754;2023-03-22T01:08:20;99378.78;;;10.67;100.00
64616;BME280;51027;42.162;24.754;2023-03-22T01:10:47;99376.41;;;10.42;100.00
64616;BME280;51027;42.162;24.754;2023-03-22T01:13:13;99365.28;;;10.35;100.00
64616;BME280;51027;42.162;24.754;2023-03-22T01:15:39;99367.75;;;10.59;100.00
64616;BME280;51027;42.162;24.754;2023-03-22T01:18:06;99362.94;;;10.48;100.00
64616;BME280;51027;42.162;24.754;2023-03-22T01:20:32;99368.22;;;10.28;100.00
64616;BME280;51027;42.162;24.754;2023-03-22T01:22:58;99348.13;;;9.85;100.00
64616;BME280;51027;42.162;24.754;2023-03-22T01:25:23;99367.94;;;10.14;100.00
64616;BME280;51027;42.162;24.754;2023-03-22T01:27:49;99374.41;;;10.27;100.00
64616;BME280;51027;42.162;24.754;2023-03-22T01:30:14;99386.72;;;10.26;100.00
64616;BME280;51027;42.162;24.754;2023-03-22T01:32:40;99385.69;;;10.08;100.00
64616;BME280;51027;42.162;24.754;2023-03-22T01:35:06;99385.38;;;10.16;100.00
64616;BME280;51027;42.162;24.754;2023-03-22T01:37:32;99359.44;;;9.87;100.00
64616;BME280;51027;42.162;24.754;2023-03-22T01:39:58;99386.88;;;10.01;100.00
64616;BME280;51027;42.162;24.754;2023-03-22T01:42:24;99382.47;;;10.02;100.00
64616;BME280;51027;42.162;24.754;2023-03-22T01:45:29;99382.94;;;10.12;100.00
64616;BME280;51027;42.162;24.754;2023-03-22T01:48:20;99381.88;;;9.95;100.00
64616;BME280;51027;42.162;24.754;2023-03-22T01:50:50;99380.59;;;9.84;100.00
64616;BME280;51027;42.162;24.754;2023-03-22T01:53:21;99386.59;;;9.87;100.00
64616;BME280;51027;42.162;24.754;2023-03-22T01:55:50;99362.50;;;9.76;100.00
64616;BME280;51027;42.162;24.754;2023-03-22T01:58:16;99376.97;;;9.86;100.00
64616;BME280;51027;42.162;24.754;2023-03-22T02:00:42;99378.41;;;9.73;100.00
64616;BME280;51027;42.162;24.754;2023-03-22T02:03:10;99375.09;;;9.68;100.00
64616;BME280;51027;42.162;24.754;2023-03-22T02:05:37;99384.13;;;9.62;100.00
64616;BME280;51027;42.162;24.754;2023-03-22T02:08:03;99384.28;;;9.58;100.00
64616;BME280;51027;42.162;24.754;2023-03-22T02:10:29;99384.63;;;9.48;100.00
64616;BME280;51027;42.162;24.754;2023-03-22T02:15:42;99384.59;;;9.72;100.00
64616;BME280;51027;42.162;24.754;2023-03-22T02:29:44;99394.78;;;9.79;100.00
64616;BME280;51027;42.162;24.754;2023-03-22T02:32:38;99389.59;;;9.78;100.00
64616;BME280;51027;42.162;24.754;2023-03-22T02:43:09;99396.06;;;9.69;100.00
64616;BME280;51027;42.162;24.754;2023-03-22T02:48:16;99382.84;;;9.50;100.00
64616;BME280;51027;42.162;24.754;2023-03-22T02:50:58;99391.50;;;9.52;100.00
64616;BME280;51027;42.162;24.754;2023-03-22T02:55:54;99405.50;;;9.53;100.00
64616;BME280;51027;42.162;24.754;2023-03-22T02:58:28;99397.72;;;9.50;100.00
64616;BME280;51027;42.162;24.754;2023-03-22T03:00:59;99409.13;;;9.50;100.00
64616;BME280;51027;42.162;24.754;2023-03-22T03:03:28;99399.13;;;9.37;100.00
64616;BME280;51027;42.162;24.754;2023-03-22T03:05:59;99404.25;;;9.40;100.00
64616;BME280;51027;42.162;24.754;2023-03-22T03:08:27;99415.41;;;9.46;100.00
64616;BME280;51027;42.162;24.754;2023-03-22T03:10:54;99415.34;;;9.48;100.00
64616;BME280;51027;42.162;24.754;2023-03-22T03:13:20;99400.25;;;9.53;100.00
64616;BME280;51027;42.162;24.754;2023-03-22T03:15:50;99420.53;;;9.49;100.00
64616;BME280;51027;42.162;24.754;2023-03-22T03:23:31;99428.38;;;9.51;100.00
64616;BME280;51027;42.162;24.754;2023-03-22T03:26:11;99431.50;;;9.61;100.00
64616;BME280;51027;42.162;24.754;2023-03-22T03:31:36;99429.66;;;9.63;100.00
64616;BME280;51027;42.162;24.754;2023-03-22T03:36:45;99414.66;;;9.43;100.00
64616;BME280;51027;42.162;24.754;2023-03-22T03:39:15;99345.63;;;9.16;100.00
64616;BME280;51027;42.162;24.754;2023-03-22T03:41:44;99429.16;;;9.53;100.00
64616;BME280;51027;42.162;24.754;2023-03-22T03:44:11;99428.38;;;9.51;100.00
64616;BME280;51027;42.162;24.754;2023-03-22T03:46:37;99427.75;;;9.66;100.00
64616;BME280;51027;42.162;24.754;2023-03-22T03:49:03;99431.97;;;9.70;100.00
64616;BME280;51027;42.162;24.754;2023-03-22T03:51:31;99424.63;;;9.57;100.00
64616;BME280;51027;42.162;24.754;2023-03-22T03:53:57;99430.16;;;9.50;100.00
64616;BME280;51027;42.162;24.754;2023-03-22T03:56:22;99424.78;;;9.53;100.00
64616;BME280;51027;42.162;24.754;2023-03-22T03:58:48;99430.03;;;9.53;100.00
64616;BME280;51027;42.162;24.754;2023-03-22T04:01:13;99430.22;;;9.71;100.00
64616;BME280;51027;42.162;24.754;2023-03-22T04:03:39;99426.69;;;9.48;100.00
64616;BME280;51027;42.162;24.754;2023-03-22T04:06:04;99414.66;;;9.43;100.00
64616;BME280;51027;42.162;24.754;2023-03-22T04:08:30;99444.59;;;9.39;100.00
64616;BME280;51027;42.162;24.754;2023-03-22T04:10:55;99434.28;;;9.34;100.00
64616;BME280;51027;42.162;24.754;2023-03-22T04:13:21;99444.09;;;9.52;100.00
64616;BME280;51027;42.162;24.754;2023-03-22T04:15:53;99449.50;;;9.48;100.00
64616;BME280;51027;42.162;24.754;2023-03-22T04:18:19;99440.19;;;9.39;100.00
64616;BME280;51027;42.162;24.754;2023-03-22T04:20:46;99451.22;;;9.49;100.00
64616;BME280;51027;42.162;24.754;2023-03-22T04:23:14;99457.91;;;9.58;100.00
64616;BME280;51027;42.162;24.754;2023-03-22T04:25:39;99450.44;;;9.47;100.00
64616;BME280;51027;42.162;24.754;2023-03-22T04:28:06;99461.31;;;9.60;100.00
64616;BME280;51027;42.162;24.754;2023-03-22T04:30:31;99461.78;;;9.71;100.00
64616;BME280;51027;42.162;24.754;2023-03-22T04:33:02;99463.72;;;9.66;100.00
64616;BME280;51027;42.162;24.754;2023-03-22T04:35:32;99454.31;;;9.37;100.00
64616;BME280;51027;42.162;24.754;2023-03-22T04:37:58;99461.69;;;9.50;100.00
64616;BME280;51027;42.162;24.754;2023-03-22T04:40:25;99458.72;;;9.36;100.00
64616;BME280;51027;42.162;24.754;2023-03-22T04:42:53;99468.34;;;9.59;100.00
64616;BME280;51027;42.162;24.754;2023-03-22T04:45:22;99465.78;;;9.79;100.00
64616;BME280;51027;42.162;24.754;2023-03-22T04:47:47;99471.44;;;9.92;100.00
64616;BME280;51027;42.162;24.754;2023-03-22T04:50:13;99450.28;;;9.73;100.00
64616;BME280;51027;42.162;24.754;2023-03-22T04:52:38;99475.41;;;9.80;100.00
64616;BME280;51027;42.162;24.754;2023-03-22T04:55:04;99475.72;;;9.95;100.00
64616;BME280;51027;42.162;24.754;2023-03-22T04:57:30;99468.38;;;9.81;100.00
64616;BME280;51027;42.162;24.754;2023-03-22T04:59:55;99475.78;;;9.71;100.00
64616;BME280;51027;42.162;24.754;2023-03-22T05:02:21;99470.81;;;9.86;100.00
64616;BME280;51027;42.162;24.754;2023-03-22T05:04:46;99467.47;;;9.82;100.00
64616;BME280;51027;42.162;24.754;2023-03-22T05:07:11;99464.88;;;9.59;100.00
64616;BME280;51027;42.162;24.754;2023-03-22T05:09:37;99474.94;;;9.71;100.00
64616;BME280;51027;42.162;24.754;2023-03-22T05:12:02;99479.00;;;9.78;100.00
64616;BME280;51027;42.162;24.754;2023-03-22T05:14:28;99475.94;;;9.89;100.00
64616;BME280;51027;42.162;24.754;2023-03-22T05:16:53;99461.94;;;9.88;100.00
64616;BME280;51027;42.162;24.754;2023-03-22T05:19:18;99494.56;;;10.06;100.00
64616;BME280;51027;42.162;24.754;2023-03-22T05:21:46;99495.53;;;10.03;100.00
64616;BME280;51027;42.162;24.754;2023-03-22T05:24:12;99500.41;;;9.91;100.00
64616;BME280;51027;42.162;24.754;2023-03-22T05:26:37;99505.88;;;10.08;100.00
64616;BME280;51027;42.162;24.754;2023-03-22T05:29:09;99512.72;;;9.90;100.00
64616;BME280;51027;42.162;24.754;2023-03-22T05:31:35;99516.47;;;10.06;100.00
64616;BME280;51027;42.162;24.754;2023-03-22T05:34:01;99508.44;;;10.09;100.00
64616;BME280;51027;42.162;24.754;2023-03-22T05:36:27;99514.06;;;10.24;100.00
64616;BME280;51027;42.162;24.754;2023-03-22T05:38:54;99520.50;;;10.15;100.00
64616;BME280;51027;42.162;24.754;2023-03-22T05:41:20;99524.22;;;10.09;100.00
64616;BME280;51027;42.162;24.754;2023-03-22T05:43:46;99518.88;;;10.13;100.00
64616;BME280;51027;42.162;24.754;2023-03-22T05:46:11;99526.06;;;10.07;100.00
64616;BME280;51027;42.162;24.754;2023-03-22T05:48:38;99532.34;;;10.27;100.00
64616;BME280;51027;42.162;24.754;2023-03-22T05:51:09;99510.28;;;10.07;100.00
64616;BME280;51027;42.162;24.754;2023-03-22T05:53:35;99529.50;;;10.09;100.00
64616;BME280;51027;42.162;24.754;2023-03-22T05:56:00;99545.63;;;10.00;100.00
64616;BME280;51027;42.162;24.754;2023-03-22T05:58:27;99551.66;;;9.80;100.00
64616;BME280;51027;42.162;24.754;2023-03-22T06:00:55;99535.50;;;9.68;100.00
64616;BME280;51027;42.162;24.754;2023-03-22T06:03:21;99553.50;;;9.78;100.00
64616;BME280;51027;42.162;24.754;2023-03-22T06:05:47;99526.25;;;9.58;100.00
64616;BME280;51027;42.162;24.754;2023-03-22T06:08:15;99538.78;;;9.96;100.00
64616;BME280;51027;42.162;24.754;2023-03-22T06:10:41;99560.22;;;10.09;100.00
64616;BME280;51027;42.162;24.754;2023-03-22T06:13:06;99562.41;;;10.20;100.00
64616;BME280;51027;42.162;24.754;2023-03-22T06:15:32;99559.22;;;10.35;100.00
64616;BME280;51027;42.162;24.754;2023-03-22T06:17:57;99567.72;;;10.42;100.00
64616;BME280;51027;42.162;24.754;2023-03-22T06:20:22;99568.81;;;10.36;100.00
64616;BME280;51027;42.162;24.754;2023-03-22T06:22:49;99562.44;;;10.42;100.00
64616;BME280;51027;42.162;24.754;2023-03-22T06:25:15;99568.41;;;10.25;100.00
64616;BME280;51027;42.162;24.754;2023-03-22T06:27:40;99584.91;;;10.28;100.00
64616;BME280;51027;42.162;24.754;2023-03-22T06:30:06;99581.56;;;10.25;100.00
64616;BME280;51027;42.162;24.754;2023-03-22T06:32:32;99582.16;;;10.31;100.00
64616;BME280;51027;42.162;24.754;2023-03-22T06:34:57;99584.47;;;10.17;100.00
64616;BME280;51027;42.162;24.754;2023-03-22T06:37:23;99598.41;;;10.19;100.00
64616;BME280;51027;42.162;24.754;2023-03-22T06:39:49;99598.59;;;10.15;100.00
64616;BME280;51027;42.162;24.754;2023-03-22T06:42:16;99579.97;;;9.97;100.00
64616;BME280;51027;42.162;24.754;2023-03-22T06:44:41;99598.16;;;10.27;100.00
64616;BME280;51027;42.162;24.754;2023-03-22T06:47:09;99603.34;;;10.28;100.00
64616;BME280;51027;42.162;24.754;2023-03-22T06:49:35;99602.22;;;10.12;100.00
64616;BME280;51027;42.162;24.754;2023-03-22T06:52:00;99588.00;;;10.16;100.00
64616;BME280;51027;42.162;24.754;2023-03-22T06:54:26;99602.50;;;10.50;100.00
64616;BME280;51027;42.162;24.754;2023-03-22T06:56:51;99604.47;;;10.45;100.00
64616;BME280;51027;42.162;24.754;2023-03-22T06:59:16;99602.50;;;10.28;100.00
64616;BME280;51027;42.162;24.754;2023-03-22T07:01:42;99601.41;;;10.55;100.00
64616;BME280;51027;42.162;24.754;2023-03-22T07:04:07;99594.56;;;10.72;100.00
64616;BME280;51027;42.162;24.754;2023-03-22T07:06:33;99593.00;;;10.24;100.00
64616;BME280;51027;42.162;24.754;2023-03-22T07:08:58;99583.91;;;10.32;100.00
64616;BME280;51027;42.162;24.754;2023-03-22T07:11:24;99568.22;;;10.06;100.00
64616;BME280;51027;42.162;24.754;2023-03-22T07:13:51;99570.44;;;10.17;100.00
64616;BME280;51027;42.162;24.754;2023-03-22T07:16:17;99553.56;;;9.77;100.00
64616;BME280;51027;42.162;24.754;2023-03-22T07:18:43;99528.38;;;9.71;100.00
64616;BME280;51027;42.162;24.754;2023-03-22T07:21:08;99560.25;;;9.86;100.00
64616;BME280;51027;42.162;24.754;2023-03-22T07:23:34;99548.09;;;9.83;100.00
64616;BME280;51027;42.162;24.754;2023-03-22T07:26:00;99563.19;;;10.00;100.00
64616;BME280;51027;42.162;24.754;2023-03-22T07:28:25;99566.59;;;10.03;100.00
64616;BME280;51027;42.162;24.754;2023-03-22T07:31:05;99586.41;;;10.35;100.00
64616;BME280;51027;42.162;24.754;2023-03-22T07:33:31;99599.19;;;10.45;100.00
64616;BME280;51027;42.162;24.754;2023-03-22T07:35:57;99606.22;;;10.66;100.00
64616;BME280;51027;42.162;24.754;2023-03-22T07:38:23;99581.56;;;10.25;100.00
64616;BME280;51027;42.162;24.754;2023-03-22T07:40:51;99603.09;;;10.56;100.00
64616;BME280;51027;42.162;24.754;2023-03-22T07:43:18;99619.25;;;10.69;100.00
64616;BME280;51027;42.162;24.754;2023-03-22T07:45:44;99619.97;;;10.73;100.00
64616;BME280;51027;42.162;24.754;2023-03-22T07:48:09;99633.66;;;10.60;100.00
64616;BME280;51027;42.162;24.754;2023-03-22T07:50:37;99639.19;;;10.54;100.00
64616;BME280;51027;42.162;24.754;2023-03-22T07:53:03;99630.59;;;10.49;100.00
64616;BME280;51027;42.162;24.754;2023-03-22T07:55:28;99640.34;;;10.47;100.00
64616;BME280;51027;42.162;24.754;2023-03-22T07:57:54;99586.47;;;10.34;100.00
64616;BME280;51027;42.162;24.754;2023-03-22T08:00:21;99636.59;;;10.75;100.00
64616;BME280;51027;42.162;24.754;2023-03-22T08:02:46;99638.38;;;10.74;100.00
64616;BME280;51027;42.162;24.754;2023-03-22T08:05:12;99620.47;;;10.82;100.00
64616;BME280;51027;42.162;24.754;2023-03-22T08:07:37;99640.69;;;10.82;100.00
64616;BME280;51027;42.162;24.754;2023-03-22T08:10:03;99642.38;;;11.05;100.00
64616;BME280;51027;42.162;24.754;2023-03-22T08:12:29;99641.59;;;11.23;100.00
64616;BME280;51027;42.162;24.754;2023-03-22T08:14:56;99645.16;;;11.42;100.00
64616;BME280;51027;42.162;24.754;2023-03-22T08:17:22;99629.53;;;11.38;100.00
64616;BME280;51027;42.162;24.754;2023-03-22T08:19:47;99633.97;;;11.37;100.00
64616;BME280;51027;42.162;24.754;2023-03-22T08:22:14;99650.63;;;11.38;100.00
64616;BME280;51027;42.162;24.754;2023-03-22T08:24:39;99660.47;;;11.14;100.00
64616;BME280;51027;42.162;24.754;2023-03-22T08:27:05;99656.38;;;11.27;100.00
64616;BME280;51027;42.162;24.754;2023-03-22T08:29:31;99662.56;;;11.46;100.00
64616;BME280;51027;42.162;24.754;2023-03-22T08:31:56;99661.50;;;11.50;100.00
64616;BME280;51027;42.162;24.754;2023-03-22T08:34:26;99654.81;;;11.62;100.00
64616;BME280;51027;42.162;24.754;2023-03-22T08:36:51;99660.97;;;11.63;100.00
64616;BME280;51027;42.162;24.754;2023-03-22T08:39:17;99655.28;;;11.72;100.00
64616;BME280;51027;42.162;24.754;2023-03-22T08:41:42;99657.22;;;11.48;100.00
64616;BME280;51027;42.162;24.754;2023-03-22T08:44:08;99652.06;;;11.04;100.00
64616;BME280;51027;42.162;24.754;2023-03-22T08:46:34;99653.75;;;10.85;100.00
64616;BME280;51027;42.162;24.754;2023-03-22T08:48:59;99648.44;;;11.07;100.00
64616;BME280;51027;42.162;24.754;2023-03-22T08:51:26;99644.97;;;11.27;100.00
64616;BME280;51027;42.162;24.754;2023-03-22T08:53:51;99642.78;;;10.95;100.00
64616;BME280;51027;42.162;24.754;2023-03-22T08:56:17;99652.34;;;10.76;100.00
64616;BME280;51027;42.162;24.754;2023-03-22T08:58:44;99616.81;;;11.07;100.00
64616;BME280;51027;42.162;24.754;2023-03-22T09:01:12;99626.06;;;11.17;100.00
64616;BME280;51027;42.162;24.754;2023-03-22T09:03:38;99648.03;;;11.77;100.00
64616;BME280;51027;42.162;24.754;2023-03-22T09:06:04;99636.66;;;10.95;100.00
64616;BME280;51027;42.162;24.754;2023-03-22T09:08:31;99623.59;;;11.12;100.00
64616;BME280;51027;42.162;24.754;2023-03-22T09:10:56;99634.72;;;11.80;100.00
64616;BME280;51027;42.162;24.754;2023-03-22T09:13:22;99640.47;;;11.49;100.00
64616;BME280;51027;42.162;24.754;2023-03-22T09:15:47;99638.38;;;11.57;100.00
64616;BME280;51027;42.162;24.754;2023-03-22T09:18:14;99645.88;;;11.66;100.00
64616;BME280;51027;42.162;24.754;2023-03-22T09:20:40;99645.69;;;11.50;100.00
64616;BME280;51027;42.162;24.754;2023-03-22T09:23:06;99652.34;;;11.79;100.00
64616;BME280;51027;42.162;24.754;2023-03-22T09:25:32;99660.63;;;11.91;100.00
64616;BME280;51027;42.162;24.754;2023-03-22T09:27:57;99595.09;;;12.00;100.00
64616;BME280;51027;42.162;24.754;2023-03-22T09:30:23;99653.09;;;12.21;100.00
64616;BME280;51027;42.162;24.754;2023-03-22T09:32:48;99658.91;;;12.46;100.00
64616;BME280;51027;42.162;24.754;2023-03-22T09:35:13;99653.66;;;12.82;100.00
64616;BME280;51027;42.162;24.754;2023-03-22T09:37:39;99636.00;;;12.83;100.00
64616;BME280;51027;42.162;24.754;2023-03-22T09:40:05;99637.53;;;11.96;100.00
64616;BME280;51027;42.162;24.754;2023-03-22T09:42:35;99643.81;;;12.12;100.00
64616;BME280;51027;42.162;24.754;2023-03-22T09:45:05;99616.94;;;12.59;100.00
64616;BME280;51027;42.162;24.754;2023-03-22T09:47:37;99625.13;;;11.98;100.00
64616;BME280;51027;42.162;24.754;2023-03-22T09:50:13;99632.63;;;12.07;100.00
64616;BME280;51027;42.162;24.754;2023-03-22T09:52:40;99626.03;;;12.34;100.00
64616;BME280;51027;42.162;24.754;2023-03-22T09:55:35;99632.69;;;12.79;100.00
64616;BME280;51027;42.162;24.754;2023-03-22T09:58:06;99635.41;;;13.12;100.00
64616;BME280;51027;42.162;24.754;2023-03-22T10:00:54;99635.22;;;12.45;100.00
64616;BME280;51027;42.162;24.754;2023-03-22T10:06:04;99644.81;;;12.83;100.00
64616;BME280;51027;42.162;24.754;2023-03-22T10:08:46;99644.63;;;13.22;100.00
64616;BME280;51027;42.162;24.754;2023-03-22T10:11:46;99634.25;;;13.52;100.00
64616;BME280;51027;42.162;24.754;2023-03-22T10:14:33;99634.25;;;13.52;100.00
64616;BME280;51027;42.162;24.754;2023-03-22T10:17:03;99637.19;;;12.94;100.00
64616;BME280;51027;42.162;24.754;2023-03-22T10:19:32;99640.16;;;13.06;100.00
64616;BME280;51027;42.162;24.754;2023-03-22T10:22:00;99632.44;;;12.84;100.00
64616;BME280;51027;42.162;24.754;2023-03-22T10:24:35;99645.50;;;13.40;100.00
64616;BME280;51027;42.162;24.754;2023-03-22T10:27:11;99619.50;;;13.31;100.00
64616;BME280;51027;42.162;24.754;2023-03-22T10:29:41;99631.34;;;13.74;100.00
64616;BME280;51027;42.162;24.754;2023-03-22T10:35:14;99625.72;;;13.80;100.00
64616;BME280;51027;42.162;24.754;2023-03-22T10:37:42;99613.50;;;13.27;100.00
64616;BME280;51027;42.162;24.754;2023-03-22T10:40:18;99624.47;;;14.19;100.00
64616;BME280;51027;42.162;24.754;2023-03-22T10:42:50;99620.50;;;14.59;100.00
64616;BME280;51027;42.162;24.754;2023-03-22T10:45:17;99629.28;;;14.28;100.00
64616;BME280;51027;42.162;24.754;2023-03-22T10:48:26;99618.41;;;14.17;100.00
64616;BME280;51027;42.162;24.754;2023-03-22T10:50:53;99616.97;;;14.75;100.00
64616;BME280;51027;42.162;24.754;2023-03-22T10:53:39;99623.31;;;14.25;100.00
64616;BME280;51027;42.162;24.754;2023-03-22T10:56:14;99613.06;;;14.66;100.00
64616;BME280;51027;42.162;24.754;2023-03-22T10:58:40;99615.97;;;14.61;100.00
64616;BME280;51027;42.162;24.754;2023-03-22T11:01:15;99617.72;;;14.29;100.00
64616;BME280;51027;42.162;24.754;2023-03-22T11:03:50;99613.22;;;14.00;100.00
64616;BME280;51027;42.162;24.754;2023-03-22T11:06:19;99612.84;;;13.90;100.00
64616;BME280;51027;42.162;24.754;2023-03-22T11:08:52;99609.59;;;13.85;100.00
64616;BME280;51027;42.162;24.754;2023-03-22T11:19:38;99585.97;;;14.45;100.00
64616;BME280;51027;42.162;24.754;2023-03-22T11:22:40;99604.47;;;14.77;98.58
64616;BME280;51027;42.162;24.754;2023-03-22T11:25:27;99598.66;;;15.16;98.96
64616;BME280;51027;42.162;24.754;2023-03-22T11:28:06;99601.16;;;15.47;95.18
64616;BME280;51027;42.162;24.754;2023-03-22T11:30:34;99601.72;;;15.52;92.34
64616;BME280;51027;42.162;24.754;2023-03-22T11:33:14;99584.13;;;15.07;92.90
64616;BME280;51027;42.162;24.754;2023-03-22T11:35:43;99581.13;;;15.42;90.20
64616;BME280;51027;42.162;24.754;2023-03-22T11:38:21;99592.44;;;15.01;92.83
64616;BME280;51027;42.162;24.754;2023-03-22T11:40:52;99580.44;;;14.80;92.35
64616;BME280;51027;42.162;24.754;2023-03-22T11:43:23;99580.69;;;15.35;92.77
64616;BME280;51027;42.162;24.754;2023-03-22T11:45:54;99574.13;;;15.26;93.07
64616;BME280;51027;42.162;24.754;2023-03-22T11:48:31;99570.31;;;15.02;93.01
64616;BME280;51027;42.162;24.754;2023-03-22T11:51:10;99572.53;;;14.94;91.49
64616;BME280;51027;42.162;24.754;2023-03-22T11:53:39;99574.28;;;14.79;88.97
64616;BME280;51027;42.162;24.754;2023-03-22T11:56:09;99579.25;;;14.85;91.01
64616;BME280;51027;42.162;24.754;2023-03-22T12:01:04;99578.00;;;14.13;93.30
64616;BME280;51027;42.162;24.754;2023-03-22T12:03:32;99567.56;;;14.58;95.00
64616;BME280;51027;42.162;24.754;2023-03-22T12:06:04;99573.31;;;14.50;95.78
64616;BME280;51027;42.162;24.754;2023-03-22T12:08:45;99574.44;;;14.15;97.03
64616;BME280;51027;42.162;24.754;2023-03-22T12:11:25;99573.25;;;14.52;96.56
64616;BME280;51027;42.162;24.754;2023-03-22T12:14:13;99572.38;;;14.81;94.84
64616;BME280;51027;42.162;24.754;2023-03-22T12:16:46;99572.97;;;14.56;95.46
64616;BME280;51027;42.162;24.754;2023-03-22T12:19:35;99574.59;;;14.43;97.99
64616;BME280;51027;42.162;24.754;2023-03-22T12:22:08;99573.28;;;14.82;97.13
64616;BME280;51027;42.162;24.754;2023-03-22T12:24:35;99575.44;;;14.59;96.52
64616;BME280;51027;42.162;24.754;2023-03-22T12:29:35;99563.31;;;14.85;96.53
64616;BME280;51027;42.162;24.754;2023-03-22T12:32:14;99569.34;;;14.73;96.03
64616;BME280;51027;42.162;24.754;2023-03-22T12:34:43;99540.75;;;14.78;92.69
64616;BME280;51027;42.162;24.754;2023-03-22T12:37:20;99565.84;;;14.73;89.33
64616;BME280;51027;42.162;24.754;2023-03-22T12:39:54;99568.94;;;14.18;93.81
64616;BME280;51027;42.162;24.754;2023-03-22T12:42:28;99556.19;;;14.40;93.59
64616;BME280;51027;42.162;24.754;2023-03-22T12:45:04;99588.66;;;14.75;91.47
64616;BME280;51027;42.162;24.754;2023-03-22T12:47:40;99575.28;;;14.92;91.67
64616;BME280;51027;42.162;24.754;2023-03-22T12:50:20;99519.81;;;15.04;89.38
64616;BME280;51027;42.162;24.754;2023-03-22T12:52:49;99578.09;;;15.64;89.11
64616;BME280;51027;42.162;24.754;2023-03-22T12:55:37;99577.69;;;15.70;86.04
64616;BME280;51027;42.162;24.754;2023-03-22T12:58:07;99580.13;;;15.44;84.38
64616;BME280;51027;42.162;24.754;2023-03-22T13:00:40;99574.44;;;16.07;81.36
64616;BME280;51027;42.162;24.754;2023-03-22T13:05:59;99581.88;;;16.29;75.71
64616;BME280;51027;42.162;24.754;2023-03-22T13:08:24;99578.06;;;16.60;72.53
64616;BME280;51027;42.162;24.754;2023-03-22T13:11:02;99582.69;;;16.98;71.24
64616;BME280;51027;42.162;24.754;2023-03-22T13:24:00;99567.69;;;17.10;68.25
64616;BME280;51027;42.162;24.754;2023-03-22T13:26:45;99565.19;;;16.13;71.73
64616;BME280;51027;42.162;24.754;2023-03-22T13:29:17;99566.75;;;16.03;70.75
64616;BME280;51027;42.162;24.754;2023-03-22T13:31:57;99560.97;;;15.96;72.42
64616;BME280;51027;42.162;24.754;2023-03-22T13:34:36;99571.16;;;15.17;73.92
64616;BME280;51027;42.162;24.754;2023-03-22T13:37:15;99575.41;;;15.05;73.97
64616;BME280;51027;42.162;24.754;2023-03-22T13:39:50;99569.28;;;14.89;73.28
64616;BME280;51027;42.162;24.754;2023-03-22T13:42:21;99568.97;;;14.79;72.94
64616;BME280;51027;42.162;24.754;2023-03-22T13:44:53;99567.00;;;14.53;73.64
64616;BME280;51027;42.162;24.754;2023-03-22T13:52:41;99570.56;;;14.67;74.17
64616;BME280;51027;42.162;24.754;2023-03-22T13:57:59;99531.84;;;14.49;73.68
64616;BME280;51027;42.162;24.754;2023-03-22T14:02:56;99567.50;;;14.44;75.13
64616;BME280;51027;42.162;24.754;2023-03-22T14:05:27;99567.84;;;14.22;75.10
64616;BME280;51027;42.162;24.754;2023-03-22T14:07:55;99566.91;;;14.07;76.30
64616;BME280;51027;42.162;24.754;2023-03-22T14:10:42;99562.78;;;14.17;75.94
64616;BME280;51027;42.162;24.754;2023-03-22T14:15:55;99563.84;;;14.30;75.97
64616;BME280;51027;42.162;24.754;2023-03-22T14:18:27;99572.44;;;14.18;76.02